Time;durP1;ratioP1;P1;durP2;ratioP2;P2;SDS_P1;SDS_P2;PMS_P1;PMS_P2;Temp;Humidity;BMP_temperature;BMP_pressure;BME280_temperature;BME280_humidity;BME280_pressure;Samples;Min_cycle;Max_cycle;Signal;HPM_P1;HPM_P2
2023/03/18 00:02:14;;;;;;;;;;;;;;;26.87;42.01;97476.31;593061;239;65087;-68
2023/03/18 00:04:41;;;;;;;;;;;;;;;26.87;44.79;97476.31;593257;239;64898;-68
2023/03/18 00:07:09;;;;;;;;;;;;;;;26.86;43.11;97472.03;593363;239;65843;-68
2023/03/18 00:09:37;;;;;;;;;;;;;;;26.83;42.91;97467.23;593287;239;63028;-68
2023/03/18 00:12:05;;;;;;;;;;;;;;;26.83;42.49;97469.94;593266;239;67303;-68
2023/03/18 00:14:34;;;;;;;;;;;;;;;26.83;42.84;97469.94;593319;239;67004;-68
2023/03/18 00:17:02;;;;;;;;;;;;;;;26.81;43.44;97467.52;593256;239;63044;-68
2023/03/18 00:19:31;;;;;;;;;;;;;;;26.81;43.29;97464.03;593349;239;65100;-68
2023/03/18 00:21:58;;;;;;;;;;;;;;;26.79;42.39;97467.84;593250;239;67525;-68
2023/03/18 00:24:27;;;;;;;;;;;;;;;26.80;43.51;97463.23;593285;239;65087;-68
2023/03/18 00:26:55;;;;;;;;;;;;;;;26.77;41.61;97461.94;593306;239;67398;-68
2023/03/18 00:29:23;;;;;;;;;;;;;;;26.76;44.20;97460.34;593309;239;64984;-68
2023/03/18 00:31:51;;;;;;;;;;;;;;;26.76;41.86;97460.34;593289;239;65026;-68
2023/03/18 00:34:20;;;;;;;;;;;;;;;26.75;44.23;97453.34;593291;239;64632;-63
2023/03/18 00:36:49;;;;;;;;;;;;;;;26.74;43.36;97454.45;593292;239;66894;-63
2023/03/18 00:39:20;;;;;;;;;;;;;;;26.73;43.28;97452.03;593290;239;64956;-63
2023/03/18 00:41:47;;;;;;;;;;;;;;;26.73;45.81;97447.44;593183;239;64462;-63
2023/03/18 00:44:14;;;;;;;;;;;;;;;26.70;41.58;97439.95;593297;239;67049;-63
2023/03/18 00:46:42;;;;;;;;;;;;;;;26.70;42.51;97439.95;593292;239;64931;-63
2023/03/18 00:49:09;;;;;;;;;;;;;;;26.69;42.10;97435.66;593289;239;67360;-63
2023/03/18 00:51:38;;;;;;;;;;;;;;;26.69;42.78;97434.88;593222;239;64856;-63
2023/03/18 00:54:07;;;;;;;;;;;;;;;26.67;43.39;97432.45;593274;239;65191;-63
2023/03/18 00:56:36;;;;;;;;;;;;;;;26.68;43.96;97438.64;593329;239;64887;-63
2023/03/18 00:59:05;;;;;;;;;;;;;;;26.66;42.23;97428.17;593311;239;65035;-63
2023/03/18 01:01:32;;;;;;;;;;;;;;;26.65;44.17;97423.86;593128;239;65066;-63
2023/03/18 01:04:00;;;;;;;;;;;;;;;26.64;44.19;97424.97;592906;239;64877;-63
2023/03/18 01:06:30;;;;;;;;;;;;;;;26.64;45.58;97421.48;592883;239;65791;-63
2023/03/18 01:08:58;;;;;;;;;;;;;;;26.62;42.01;97423.67;592876;239;62706;-63
2023/03/18 01:11:26;;;;;;;;;;;;;;;26.61;40.73;97419.38;592850;239;67291;-63
2023/03/18 01:13:54;;;;;;;;;;;;;;;26.60;42.92;97417.77;592891;239;65037;-63
2023/03/18 01:16:21;;;;;;;;;;;;;;;26.59;44.39;97414.28;592879;239;63544;-63
2023/03/18 01:18:50;;;;;;;;;;;;;;;26.59;42.33;97421.57;592875;239;67287;-63
2023/03/18 01:21:18;;;;;;;;;;;;;;;26.57;42.52;97419.16;588118;239;66209;-63
2023/03/18 01:23:56;;;;;;;;;;;;;;;26.56;43.83;97412.98;592912;239;42505;-63
2023/03/18 01:26:25;;;;;;;;;;;;;;;26.55;43.63;97418.69;592884;239;67684;-63
2023/03/18 01:28:53;;;;;;;;;;;;;;;26.54;41.62;97419.76;592901;237;65424;-62
2023/03/18 01:31:20;;;;;;;;;;;;;;;26.54;42.14;97422.45;592867;239;65745;-62
2023/03/18 01:33:48;;;;;;;;;;;;;;;26.51;42.59;97414.97;592873;239;67335;-62
2023/03/18 01:36:17;;;;;;;;;;;;;;;26.51;44.47;97414.97;592839;239;67338;-62
2023/03/18 01:38:47;;;;;;;;;;;;;;;26.50;43.35;97407.95;592905;239;43056;-63
2023/03/18 01:41:16;;;;;;;;;;;;;;;26.50;43.32;97413.34;592862;239;66901;-62
2023/03/18 01:43:43;;;;;;;;;;;;;;;26.49;44.07;97403.64;592877;239;67074;-62
2023/03/18 01:46:29;;;;;;;;;;;;;;;26.47;42.67;97408.55;592854;239;64596;-63
2023/03/18 01:48:57;;;;;;;;;;;;;;;26.46;43.69;97407.73;592895;239;64538;-63
2023/03/18 01:51:25;;;;;;;;;;;;;;;26.45;43.02;97410.73;592944;239;67196;-63
2023/03/18 01:53:54;;;;;;;;;;;;;;;26.44;42.12;97406.45;592916;239;65060;-68
2023/03/18 01:56:21;;;;;;;;;;;;;;;26.44;41.89;97409.16;592939;239;66814;-68
2023/03/18 01:58:50;;;;;;;;;;;;;;;26.41;41.56;97410.55;592893;239;65144;-63
2023/03/18 02:01:26;;;;;;;;;;;;;;;26.41;41.87;97398.94;592880;239;65936;-63
2023/03/18 02:03:55;;;;;;;;;;;;;;;26.41;45.37;97407.84;593289;239;67581;-61
2023/03/18 02:06:24;;;;;;;;;;;;;;;26.39;42.83;97404.64;593349;239;65095;-62
2023/03/18 02:08:54;;;;;;;;;;;;;;;26.39;42.76;97398.47;593130;238;41549;-63
2023/03/18 02:11:22;;;;;;;;;;;;;;;26.38;40.98;97404.93;593312;239;64942;-62
2023/03/18 02:13:51;;;;;;;;;;;;;;;26.38;41.46;97399.54;593270;239;64989;-62
2023/03/18 02:16:20;;;;;;;;;;;;;;;26.36;42.44;97407.94;593338;239;65148;-67
2023/03/18 02:18:50;;;;;;;;;;;;;;;26.34;42.22;97399.34;594069;238;67101;-67
2023/03/18 02:21:34;;;;;;;;;;;;;;;26.33;41.84;97397.75;593929;238;67218;-68
2023/03/18 02:24:04;;;;;;;;;;;;;;;26.34;42.51;97412.81;593179;239;62874;-69
2023/03/18 02:26:49;;;;;;;;;;;;;;;26.32;44.59;97413.09;593105;239;66746;-69
2023/03/18 02:29:18;;;;;;;;;;;;;;;26.32;43.03;97412.30;592997;239;45090;-69
2023/03/18 02:31:49;;;;;;;;;;;;;;;26.30;44.76;97415.31;593229;239;43545;-69
2023/03/18 02:34:19;;;;;;;;;;;;;;;26.28;42.03;97422.88;593283;239;48252;-63
2023/03/18 02:36:47;;;;;;;;;;;;;;;26.28;42.40;97414.00;593361;239;66825;-63
2023/03/18 02:39:15;;;;;;;;;;;;;;;26.27;43.76;97423.16;593294;239;65019;-63
2023/03/18 02:41:43;;;;;;;;;;;;;;;26.26;41.98;97430.45;593295;239;64350;-63
2023/03/18 02:44:12;;;;;;;;;;;;;;;26.26;45.46;97418.88;593323;239;66903;-63
2023/03/18 02:46:42;;;;;;;;;;;;;;;26.24;40.52;97421.86;593026;238;41887;-63
2023/03/18 02:49:10;;;;;;;;;;;;;;;26.24;41.10;97421.06;593101;239;68298;-63
2023/03/18 02:51:39;;;;;;;;;;;;;;;26.22;43.43;97425.94;593274;239;67426;-63
2023/03/18 02:54:09;;;;;;;;;;;;;;;26.21;41.90;97422.45;593310;239;64906;-63
2023/03/18 02:56:37;;;;;;;;;;;;;;;26.20;44.55;97422.77;593301;239;67285;-61
2023/03/18 02:59:06;;;;;;;;;;;;;;;26.20;41.35;97420.08;593310;239;64716;-62
2023/03/18 03:01:34;;;;;;;;;;;;;;;26.18;41.72;97417.66;593206;239;63099;-62
2023/03/18 03:04:02;;;;;;;;;;;;;;;26.16;40.56;97419.84;592883;239;67359;-62
2023/03/18 03:06:30;;;;;;;;;;;;;;;26.17;44.47;97421.46;592905;239;67029;-62
2023/03/18 03:08:59;;;;;;;;;;;;;;;26.17;42.89;97420.66;592905;239;65875;-62
2023/03/18 03:11:27;;;;;;;;;;;;;;;26.15;40.69;97412.07;592883;239;65451;-62
2023/03/18 03:13:57;;;;;;;;;;;;;;;26.15;41.96;97429.03;592629;239;46321;-62
2023/03/18 03:16:25;;;;;;;;;;;;;;;26.14;40.98;97416.67;592873;239;62515;-62
2023/03/18 03:18:54;;;;;;;;;;;;;;;26.12;41.94;97405.38;592874;239;68016;-62
2023/03/18 03:21:22;;;;;;;;;;;;;;;26.11;44.98;97407.28;592902;239;66954;-67
2023/03/18 03:23:51;;;;;;;;;;;;;;;26.11;42.84;97403.79;592885;239;63531;-67
2023/03/18 03:26:19;;;;;;;;;;;;;;;26.09;45.55;97405.97;592904;239;67253;-67
2023/03/18 03:28:47;;;;;;;;;;;;;;;26.07;42.35;97406.25;592931;239;65654;-67
2023/03/18 03:31:15;;;;;;;;;;;;;;;26.07;42.38;97413.54;592907;239;65071;-67
2023/03/18 03:33:43;;;;;;;;;;;;;;;26.06;41.84;97407.36;592941;239;66896;-67
2023/03/18 03:36:12;;;;;;;;;;;;;;;26.06;42.48;97411.95;592924;239;66880;-67
2023/03/18 03:38:41;;;;;;;;;;;;;;;26.04;44.05;97409.54;592912;239;64913;-62
2023/03/18 03:41:10;;;;;;;;;;;;;;;26.02;40.58;97402.84;592948;239;64558;-62
2023/03/18 03:43:39;;;;;;;;;;;;;;;26.02;42.96;97406.33;592884;239;66887;-62
2023/03/18 03:46:08;;;;;;;;;;;;;;;26.01;40.90;97401.26;592912;239;62917;-62
2023/03/18 03:48:35;;;;;;;;;;;;;;;26.00;42.36;97405.02;592902;239;67052;-62
2023/03/18 03:51:04;;;;;;;;;;;;;;;26.00;43.99;97403.16;592924;239;66826;-62
2023/03/18 03:53:32;;;;;;;;;;;;;;;25.97;41.47;97401.02;592948;239;65060;-62
2023/03/18 03:56:00;;;;;;;;;;;;;;;25.97;43.20;97398.33;592915;239;65392;-62
2023/03/18 03:58:28;;;;;;;;;;;;;;;25.97;42.36;97392.16;592934;239;66584;-62
2023/03/18 04:00:56;;;;;;;;;;;;;;;25.95;42.45;97395.16;592843;239;62999;-62
2023/03/18 04:03:24;;;;;;;;;;;;;;;25.95;43.72;97389.77;592857;239;65669;-62
2023/03/18 04:05:52;;;;;;;;;;;;;;;25.93;43.39;97389.26;592893;239;65083;-62
2023/03/18 04:08:21;;;;;;;;;;;;;;;25.94;44.04;97387.36;592865;239;65792;-62
2023/03/18 04:10:48;;;;;;;;;;;;;;;25.93;42.92;97391.16;592951;239;66963;-67
2023/03/18 04:13:16;;;;;;;;;;;;;;;25.91;43.26;97394.92;592913;239;64277;-68
2023/03/18 04:15:46;;;;;;;;;;;;;;;25.90;43.05;97387.16;592907;239;65478;-68
2023/03/18 04:18:15;;;;;;;;;;;;;;;25.90;42.21;97395.23;592921;239;65934;-67
2023/03/18 04:20:43;;;;;;;;;;;;;;;25.89;43.74;97397.13;592917;239;66990;-68
2023/03/18 04:23:16;;;;;;;;;;;;;;;25.90;44.84;97406.00;592277;239;44840;-68
2023/03/18 04:25:43;;;;;;;;;;;;;;;25.86;41.51;97408.50;592950;239;67515;-68
2023/03/18 04:28:12;;;;;;;;;;;;;;;25.87;42.30;97411.98;592895;239;64936;-68
2023/03/18 04:30:40;;;;;;;;;;;;;;;25.85;43.98;97406.88;592872;239;62500;-68
2023/03/18 04:33:11;;;;;;;;;;;;;;;25.85;47.54;97404.19;592823;239;48923;-67
2023/03/18 04:35:42;;;;;;;;;;;;;;;25.84;44.10;97415.27;592882;239;63966;-68
2023/03/18 04:38:09;;;;;;;;;;;;;;;25.82;42.15;97412.82;592948;239;65462;-68
2023/03/18 04:40:38;;;;;;;;;;;;;;;25.81;43.80;97413.09;592452;239;67572;-67
2023/03/18 04:43:06;;;;;;;;;;;;;;;25.80;44.76;97406.92;592716;239;64393;-68
2023/03/18 04:45:33;;;;;;;;;;;;;;;25.80;45.92;97406.92;592921;239;64975;-67
2023/03/18 04:48:01;;;;;;;;;;;;;;;25.78;44.72;97395.66;592896;239;64359;-68
2023/03/18 04:50:30;;;;;;;;;;;;;;;25.78;44.66;97395.66;592991;239;45684;-68
2023/03/18 04:52:59;;;;;;;;;;;;;;;25.77;42.51;97396.73;592910;239;66049;-67
2023/03/18 04:55:28;;;;;;;;;;;;;;;25.75;43.38;97396.23;592864;239;66935;-68
2023/03/18 04:57:56;;;;;;;;;;;;;;;25.75;41.76;97393.53;592910;239;64433;-68
2023/03/18 05:00:25;;;;;;;;;;;;;;;25.74;44.68;97401.92;592853;239;65824;-67
2023/03/18 05:02:56;;;;;;;;;;;;;;;25.73;44.06;97394.91;592690;239;47991;-68
2023/03/18 05:05:25;;;;;;;;;;;;;;;25.72;43.07;97394.13;588249;239;68079;-67
2023/03/18 05:07:53;;;;;;;;;;;;;;;25.73;44.38;97392.22;592850;239;65711;-67
2023/03/18 05:10:20;;;;;;;;;;;;;;;25.71;44.72;97395.23;592038;239;67036;-68
2023/03/18 05:12:49;;;;;;;;;;;;;;;25.69;42.53;97395.50;592907;239;67113;-68
2023/03/18 05:15:19;;;;;;;;;;;;;;;25.68;43.04;97396.61;592817;239;43300;-67
2023/03/18 05:17:48;;;;;;;;;;;;;;;25.67;43.91;97396.89;592712;237;44012;-63
2023/03/18 05:20:15;;;;;;;;;;;;;;;25.66;43.13;97400.68;592893;239;67125;-68
2023/03/18 05:22:43;;;;;;;;;;;;;;;25.66;41.51;97389.92;592940;237;62967;-67
2023/03/18 05:25:13;;;;;;;;;;;;;;;25.64;44.59;97397.48;592905;238;47562;-67
2023/03/18 05:27:43;;;;;;;;;;;;;;;25.62;43.05;97394.30;592929;239;48141;-67
2023/03/18 05:30:14;;;;;;;;;;;;;;;25.61;43.93;97389.98;592805;239;46322;-67
2023/03/18 05:32:47;;;;;;;;;;;;;;;25.60;44.07;97391.88;592878;239;45530;-67
2023/03/18 05:35:16;;;;;;;;;;;;;;;25.58;41.16;97382.50;592955;239;66614;-67
2023/03/18 05:37:47;;;;;;;;;;;;;;;25.57;41.17;97384.40;592739;239;46521;-67
2023/03/18 05:40:15;;;;;;;;;;;;;;;25.55;39.23;97386.58;592902;239;67151;-67
2023/03/18 05:42:48;;;;;;;;;;;;;;;25.54;40.64;97395.75;592667;239;45162;-67
2023/03/18 05:45:16;;;;;;;;;;;;;;;25.53;41.21;97398.72;592956;239;64963;-67
2023/03/18 05:47:45;;;;;;;;;;;;;;;25.53;41.53;97386.06;592817;238;44302;-67
2023/03/18 05:50:14;;;;;;;;;;;;;;;25.51;41.85;97387.44;592929;239;67439;-67
2023/03/18 05:52:42;;;;;;;;;;;;;;;25.50;41.97;97380.47;592902;239;62599;-67
2023/03/18 05:55:13;;;;;;;;;;;;;;;25.50;41.86;97375.09;592820;239;45046;-67
2023/03/18 05:57:44;;;;;;;;;;;;;;;25.50;42.91;97380.47;592992;239;66962;-67
2023/03/18 06:00:12;;;;;;;;;;;;;;;25.48;41.44;97372.67;592910;239;63814;-67
2023/03/18 06:02:47;;;;;;;;;;;;;;;25.46;40.69;97370.29;592929;239;66859;-67
2023/03/18 06:05:17;;;;;;;;;;;;;;;25.46;41.72;97361.42;592923;239;67179;-67
2023/03/18 06:07:45;;;;;;;;;;;;;;;25.46;43.11;97361.42;592942;239;65641;-67
2023/03/18 06:10:13;;;;;;;;;;;;;;;25.45;41.96;97365.19;592885;239;64281;-67
2023/03/18 06:12:41;;;;;;;;;;;;;;;25.44;42.29;97372.47;592977;239;66795;-67
2023/03/18 06:15:09;;;;;;;;;;;;;;;25.45;42.31;97392.09;592929;239;65315;-67
2023/03/18 06:17:40;;;;;;;;;;;;;;;25.44;40.41;97398.58;592708;239;48047;-67
2023/03/18 06:20:10;;;;;;;;;;;;;;;25.44;42.31;97410.14;592887;239;67145;-67
2023/03/18 06:22:38;;;;;;;;;;;;;;;25.44;43.70;97418.20;592907;239;62994;-67
2023/03/18 06:25:07;;;;;;;;;;;;;;;25.42;40.17;97420.38;592998;239;66846;-62
2023/03/18 06:27:36;;;;;;;;;;;;;;;25.42;40.87;97425.77;592730;239;44681;-67
2023/03/18 06:30:04;;;;;;;;;;;;;;;25.42;42.02;97433.83;592887;239;65714;-67
2023/03/18 06:32:34;;;;;;;;;;;;;;;25.42;42.60;97427.66;592956;239;64510;-67
2023/03/18 06:35:02;;;;;;;;;;;;;;;25.41;44.70;97426.86;592931;237;64384;-67
2023/03/18 06:37:30;;;;;;;;;;;;;;;25.41;40.42;97429.55;592934;239;66391;-68
2023/03/18 06:39:58;;;;;;;;;;;;;;;25.40;40.33;97430.66;592985;239;66926;-67
2023/03/18 06:42:25;;;;;;;;;;;;;;;25.39;41.20;97428.24;592910;239;66400;-67
2023/03/18 06:44:57;;;;;;;;;;;;;;;25.40;44.99;97441.42;588731;239;45010;-66
2023/03/18 06:47:28;;;;;;;;;;;;;;;25.39;41.79;97444.38;592815;239;43951;-67
2023/03/18 06:49:56;;;;;;;;;;;;;;;25.37;41.89;97439.31;588155;239;67124;-67
2023/03/18 06:52:27;;;;;;;;;;;;;;;25.37;42.67;97447.37;592917;239;41556;-67
2023/03/18 06:54:56;;;;;;;;;;;;;;;25.38;43.92;97445.48;592903;238;43868;-67
2023/03/18 06:57:23;;;;;;;;;;;;;;;25.36;41.77;97448.45;592908;239;66742;-68
2023/03/18 06:59:52;;;;;;;;;;;;;;;25.37;43.37;97446.55;592879;239;65025;-67
2023/03/18 07:02:22;;;;;;;;;;;;;;;25.37;43.24;97447.37;592986;239;67417;-67
2023/03/18 07:04:50;;;;;;;;;;;;;;;25.36;41.91;97451.14;593333;239;67174;-67
2023/03/18 07:07:18;;;;;;;;;;;;;;;25.37;44.69;97452.77;593325;239;65101;-68
2023/03/18 07:09:45;;;;;;;;;;;;;;;25.37;42.71;97458.14;593269;239;66994;-67
2023/03/18 07:12:13;;;;;;;;;;;;;;;25.37;43.95;97463.52;593316;239;66897;-67
2023/03/18 07:14:42;;;;;;;;;;;;;;;25.36;43.18;97461.91;593304;238;65763;-67
2023/03/18 07:17:11;;;;;;;;;;;;;;;25.37;43.54;97460.01;593338;239;67864;-66
2023/03/18 07:19:39;;;;;;;;;;;;;;;25.36;41.75;97459.21;593369;239;67035;-67
2023/03/18 07:22:06;;;;;;;;;;;;;;;25.38;43.75;97458.94;593277;239;64839;-66
2023/03/18 07:24:34;;;;;;;;;;;;;;;25.36;40.32;97458.42;593303;239;65629;-66
2023/03/18 07:27:03;;;;;;;;;;;;;;;25.39;44.90;97465.91;593322;239;64459;-66
2023/03/18 07:29:32;;;;;;;;;;;;;;;25.37;42.51;97468.08;593349;238;45785;-67
2023/03/18 07:32:00;;;;;;;;;;;;;;;25.37;45.16;97468.91;593376;239;67062;-67
2023/03/18 07:34:28;;;;;;;;;;;;;;;25.37;43.18;97471.59;593300;239;66801;-67
2023/03/18 07:36:56;;;;;;;;;;;;;;;25.37;40.04;97476.98;593323;239;65949;-67
2023/03/18 07:39:24;;;;;;;;;;;;;;;25.38;44.53;97480.45;593319;239;64735;-67
2023/03/18 07:41:51;;;;;;;;;;;;;;;25.37;40.43;97473.45;593331;239;66523;-67
2023/03/18 07:44:21;;;;;;;;;;;;;;;25.39;45.55;97482.05;593109;239;45220;-67
2023/03/18 07:46:48;;;;;;;;;;;;;;;25.40;45.68;97483.64;593308;239;64720;-68
2023/03/18 07:49:17;;;;;;;;;;;;;;;25.39;43.89;97488.22;593254;239;64958;-68
2023/03/18 07:51:44;;;;;;;;;;;;;;;25.40;44.04;97484.47;593326;239;65090;-68
2023/03/18 07:54:13;;;;;;;;;;;;;;;25.40;42.76;97489.84;593308;239;66973;-67
2023/03/18 07:56:40;;;;;;;;;;;;;;;25.40;44.31;97489.84;593360;239;66717;-68
2023/03/18 07:59:09;;;;;;;;;;;;;;;25.42;45.78;97489.55;593309;239;65084;-68
2023/03/18 08:01:37;;;;;;;;;;;;;;;25.41;43.38;97493.33;593215;239;64739;-67
2023/03/18 08:04:05;;;;;;;;;;;;;;;25.42;46.48;97487.64;592925;239;66708;-67
2023/03/18 08:06:33;;;;;;;;;;;;;;;25.42;44.60;97494.92;592937;239;65141;-67
2023/03/18 08:09:02;;;;;;;;;;;;;;;25.43;46.61;97500.03;592916;239;66691;-67
2023/03/18 08:11:31;;;;;;;;;;;;;;;25.43;45.78;97500.03;592921;239;66806;-67
2023/03/18 08:13:59;;;;;;;;;;;;;;;25.44;43.38;97495.45;592886;239;63821;-67
2023/03/18 08:16:29;;;;;;;;;;;;;;;25.43;42.58;97496.55;592922;239;46966;-68
2023/03/18 08:18:57;;;;;;;;;;;;;;;25.45;45.10;97497.86;592903;239;66614;-68
2023/03/18 08:21:24;;;;;;;;;;;;;;;25.44;42.63;97501.63;592908;239;62882;-68
2023/03/18 08:23:52;;;;;;;;;;;;;;;25.45;43.74;97492.48;592950;239;66943;-67
2023/03/18 08:26:20;;;;;;;;;;;;;;;25.45;47.22;97489.79;592912;239;66831;-67
2023/03/18 08:28:49;;;;;;;;;;;;;;;25.46;42.91;97504.83;592879;239;65060;-68
2023/03/18 08:31:16;;;;;;;;;;;;;;;25.46;45.73;97496.76;592944;237;66938;-68
2023/03/18 08:33:45;;;;;;;;;;;;;;;25.47;45.74;97482.20;592877;239;66737;-68
2023/03/18 08:36:13;;;;;;;;;;;;;;;25.46;44.87;97488.69;592798;239;62768;-68
2023/03/18 08:38:40;;;;;;;;;;;;;;;25.47;45.64;97490.28;593384;238;67000;-68
2023/03/18 08:41:08;;;;;;;;;;;;;;;25.48;43.38;97496.45;593656;238;64656;-68
2023/03/18 08:43:36;;;;;;;;;;;;;;;25.50;45.23;97496.18;592888;239;65192;-68
2023/03/18 08:46:04;;;;;;;;;;;;;;;25.51;46.23;97497.77;592887;239;66938;-68
2023/03/18 08:48:32;;;;;;;;;;;;;;;25.51;45.95;97489.70;592958;239;66854;-68
2023/03/18 08:51:00;;;;;;;;;;;;;;;25.51;45.88;97489.70;592891;239;65059;-68
2023/03/18 08:53:29;;;;;;;;;;;;;;;25.50;43.40;97504.25;592721;238;49504;-68
2023/03/18 08:55:57;;;;;;;;;;;;;;;25.52;47.97;97491.31;592961;239;66371;-68
2023/03/18 08:58:26;;;;;;;;;;;;;;;25.50;43.99;97486.20;592964;239;62900;-68
2023/03/18 09:00:54;;;;;;;;;;;;;;;25.51;45.49;97495.91;592941;239;66934;-68
2023/03/18 09:03:23;;;;;;;;;;;;;;;25.52;45.18;97486.73;592929;239;66780;-68
2023/03/18 09:05:54;;;;;;;;;;;;;;;25.52;46.79;97499.39;592934;237;62704;-68
2023/03/18 09:08:22;;;;;;;;;;;;;;;25.54;45.66;97497.22;592932;239;67062;-67
2023/03/18 09:10:53;;;;;;;;;;;;;;;25.52;45.37;97502.08;592948;239;66864;-69
2023/03/18 09:13:21;;;;;;;;;;;;;;;25.53;41.89;97501.77;592959;239;65111;-69
2023/03/18 09:15:49;;;;;;;;;;;;;;;25.54;43.49;97499.91;593014;239;66829;-69
2023/03/18 09:18:17;;;;;;;;;;;;;;;25.53;45.66;97493.70;592973;239;66864;-67
2023/03/18 09:20:45;;;;;;;;;;;;;;;25.54;43.30;97499.91;593014;239;65053;-69
2023/03/18 09:23:13;;;;;;;;;;;;;;;25.55;46.23;97510.37;592920;239;66725;-67
2023/03/18 09:25:46;;;;;;;;;;;;;;;25.55;46.15;97501.50;592970;239;66725;-67
2023/03/18 09:28:10;;;;;;;;;;;;;;;25.54;45.30;97500.70;592768;239;65081;-67
2023/03/18 09:30:38;;;;;;;;;;;;;;;25.56;46.74;97508.47;592950;239;67256;-67
2023/03/18 09:33:06;;;;;;;;;;;;;;;25.55;45.54;97501.50;592974;239;64844;-67
2023/03/18 09:35:35;;;;;;;;;;;;;;;25.56;44.40;97505.78;592928;239;65053;-67
2023/03/18 09:38:03;;;;;;;;;;;;;;;25.56;43.62;97505.78;592959;239;67144;-67
2023/03/18 09:40:32;;;;;;;;;;;;;;;25.55;44.76;97507.67;592977;239;64626;-67
2023/03/18 09:43:14;;;;;;;;;;;;;;;25.57;47.90;97504.71;592986;239;65158;-67
2023/03/18 09:45:44;;;;;;;;;;;;;;;25.56;44.19;97497.70;592970;239;66773;-68
2023/03/18 09:48:28;;;;;;;;;;;;;;;25.57;45.85;97504.71;592963;239;67079;-67
2023/03/18 09:50:57;;;;;;;;;;;;;;;25.58;46.03;97514.38;592778;239;65012;-67
2023/03/18 09:53:29;;;;;;;;;;;;;;;25.57;43.29;97505.50;588432;238;67009;-67
2023/03/18 09:55:59;;;;;;;;;;;;;;;25.58;45.95;97500.91;592773;239;66797;-67
2023/03/18 09:58:31;;;;;;;;;;;;;;;25.57;42.87;97505.50;592958;239;63089;-67
2023/03/18 10:01:02;;;;;;;;;;;;;;;25.55;40.55;97504.98;592876;238;64523;-67
2023/03/18 10:03:31;;;;;;;;;;;;;;;25.57;44.04;97504.71;592911;237;64726;-67
2023/03/18 10:06:01;;;;;;;;;;;;;;;25.57;45.36;97508.20;592871;239;63039;-67
2023/03/18 10:08:33;;;;;;;;;;;;;;;25.58;43.63;97508.99;592939;239;66935;-67
2023/03/18 10:11:02;;;;;;;;;;;;;;;25.57;47.40;97521.66;592875;239;66159;-68
2023/03/18 10:13:31;;;;;;;;;;;;;;;25.55;43.80;97518.44;592908;239;65157;-68
2023/03/18 10:16:00;;;;;;;;;;;;;;;25.57;43.29;97531.63;592842;239;64704;-68
2023/03/18 10:18:30;;;;;;;;;;;;;;;25.57;45.89;97523.55;592890;239;64898;-63
2023/03/18 10:21:02;;;;;;;;;;;;;;;25.57;44.41;97534.31;592553;239;65173;-63
2023/03/18 10:23:32;;;;;;;;;;;;;;;25.56;44.61;97522.72;592862;239;64963;-63
2023/03/18 10:26:01;;;;;;;;;;;;;;;25.55;45.85;97523.83;592911;239;64738;-63
2023/03/18 10:28:39;;;;;;;;;;;;;;;25.54;41.10;97524.13;592886;239;62903;-62
2023/03/18 10:31:08;;;;;;;;;;;;;;;25.56;44.38;97524.62;592702;239;66832;-63
2023/03/18 10:33:37;;;;;;;;;;;;;;;25.56;45.51;97535.38;592951;239;66469;-63
2023/03/18 10:36:23;;;;;;;;;;;;;;;25.55;43.34;97528.41;592938;239;63686;-62
2023/03/18 10:38:51;;;;;;;;;;;;;;;25.55;45.35;97525.72;592930;239;66384;-63
2023/03/18 10:41:29;;;;;;;;;;;;;;;25.54;42.96;97519.55;592946;239;64018;-63
2023/03/18 10:43:58;;;;;;;;;;;;;;;25.54;41.33;97524.13;592878;239;65063;-63
2023/03/18 10:46:25;;;;;;;;;;;;;;;25.54;44.74;97521.44;592966;239;66756;-63
2023/03/18 10:48:57;;;;;;;;;;;;;;;25.53;43.97;97519.81;592938;239;64217;-63
2023/03/18 10:51:36;;;;;;;;;;;;;;;25.52;43.43;97518.23;592820;239;65140;-62
2023/03/18 10:54:14;;;;;;;;;;;;;;;25.52;44.45;97516.33;592905;239;66692;-63
2023/03/18 10:56:42;;;;;;;;;;;;;;;25.51;42.39;97516.61;592793;239;64358;-62
2023/03/18 10:59:17;;;;;;;;;;;;;;;25.52;44.35;97507.46;592942;239;63011;-68
2023/03/18 11:01:49;;;;;;;;;;;;;;;25.52;44.17;97508.26;593007;239;66996;-67
2023/03/18 11:04:18;;;;;;;;;;;;;;;25.51;43.19;97512.05;593307;239;66900;-68
2023/03/18 11:06:47;;;;;;;;;;;;;;;25.51;42.33;97505.84;593304;239;65040;-68
2023/03/18 11:09:19;;;;;;;;;;;;;;;25.51;46.21;97495.91;593271;239;66831;-68
2023/03/18 11:11:48;;;;;;;;;;;;;;;25.51;44.52;97497.77;593346;239;66839;-68
2023/03/18 11:14:18;;;;;;;;;;;;;;;25.50;42.68;97499.66;593375;239;63021;-68
2023/03/18 11:16:50;;;;;;;;;;;;;;;25.50;43.86;97485.41;593336;239;66923;-68
2023/03/18 11:19:28;;;;;;;;;;;;;;;25.50;42.74;97488.10;593311;239;66867;-68
2023/03/18 11:24:44;;;;;;;;;;;;;;;25.49;42.64;97491.90;593414;238;37496;-68
2023/03/18 11:27:16;;;;;;;;;;;;;;;25.49;42.01;97491.90;593319;239;66366;-68
2023/03/18 11:29:45;;;;;;;;;;;;;;;25.50;46.89;97482.72;593308;239;62917;-68
2023/03/18 11:32:27;;;;;;;;;;;;;;;25.49;41.71;97478.44;593066;239;66841;-68
2023/03/18 11:34:59;;;;;;;;;;;;;;;25.49;42.34;97481.13;593289;239;67098;-69
2023/03/18 11:37:28;;;;;;;;;;;;;;;25.50;44.18;97474.65;592973;238;65086;-69
2023/03/18 11:39:57;;;;;;;;;;;;;;;25.49;46.10;97464.98;593123;239;66991;-69
2023/03/18 11:42:25;;;;;;;;;;;;;;;25.49;46.31;97460.41;593015;238;66875;-69
2023/03/18 11:44:57;;;;;;;;;;;;;;;25.47;43.40;97452.61;593248;239;64954;-67
2023/03/18 11:47:29;;;;;;;;;;;;;;;25.50;43.88;97445.05;593243;238;66990;-66
2023/03/18 11:49:57;;;;;;;;;;;;;;;25.50;44.17;97451.23;593337;238;64726;-68
2023/03/18 11:52:28;;;;;;;;;;;;;;;25.51;46.40;97444.77;593300;239;64075;-67
2023/03/18 11:55:17;;;;;;;;;;;;;;;25.50;43.15;97445.84;593193;239;66779;-67
2023/03/18 11:57:49;;;;;;;;;;;;;;;25.51;44.49;97441.26;593569;238;66839;-68
2023/03/18 12:00:21;;;;;;;;;;;;;;;25.51;44.70;97434.02;592881;238;65100;-68
2023/03/18 12:03:07;;;;;;;;;;;;;;;25.52;43.96;97437.49;593319;238;67304;-67
2023/03/18 12:05:48;;;;;;;;;;;;;;;25.52;45.87;97432.11;593334;239;67614;-67
2023/03/18 12:08:23;;;;;;;;;;;;;;;25.53;44.59;97433.70;593342;238;65053;-67
2023/03/18 12:11:06;;;;;;;;;;;;;;;25.51;44.22;97428.62;593298;238;66940;-67
2023/03/18 12:13:36;;;;;;;;;;;;;;;25.52;46.25;97429.42;593365;238;66965;-67
2023/03/18 12:16:22;;;;;;;;;;;;;;;25.52;46.00;97421.34;593533;238;65029;-67
2023/03/18 12:18:54;;;;;;;;;;;;;;;25.52;44.22;97413.28;593328;238;64970;-67
2023/03/18 12:21:26;;;;;;;;;;;;;;;25.51;44.88;97409.79;593352;238;66700;-67
2023/03/18 12:23:55;;;;;;;;;;;;;;;25.52;45.04;97395.23;593224;238;65161;-68
2023/03/18 12:26:30;;;;;;;;;;;;;;;25.53;44.30;97401.41;592956;238;67057;-68
2023/03/18 12:29:08;;;;;;;;;;;;;;;25.52;46.22;97391.75;593057;239;67935;-68
2023/03/18 12:31:38;;;;;;;;;;;;;;;25.53;44.56;97387.95;592947;239;65155;-68
2023/03/18 12:34:07;;;;;;;;;;;;;;;25.54;43.84;97394.95;593445;238;64786;-68
2023/03/18 12:36:41;;;;;;;;;;;;;;;25.53;44.21;97390.64;593232;239;66906;-68
2023/03/18 12:39:19;;;;;;;;;;;;;;;25.55;45.15;97396.55;593099;239;65833;-68
2023/03/18 12:42:04;;;;;;;;;;;;;;;25.54;42.41;97392.27;586972;241;67061;-68
2023/03/18 12:44:35;;;;;;;;;;;;;;;25.56;45.73;97387.37;593334;239;48549;-68
2023/03/18 12:47:16;;;;;;;;;;;;;;;25.54;44.57;97395.75;593041;238;65366;-68
2023/03/18 12:49:46;;;;;;;;;;;;;;;25.55;44.14;97391.95;593345;238;64605;-68
2023/03/18 12:52:21;;;;;;;;;;;;;;;25.54;43.56;97395.75;593248;238;67268;-68
2023/03/18 12:54:51;;;;;;;;;;;;;;;25.55;45.46;97389.27;593481;238;65307;-68
2023/03/18 12:57:23;;;;;;;;;;;;;;;25.55;43.64;97393.85;592711;239;66956;-63
2023/03/18 12:59:55;;;;;;;;;;;;;;;25.56;42.65;97392.75;592972;239;64784;-62
2023/03/18 13:02:42;;;;;;;;;;;;;;;25.57;44.11;97394.37;592950;239;63189;-62
2023/03/18 13:05:15;;;;;;;;;;;;;;;25.56;43.14;97393.55;582386;238;64129;-62